sensor_id;sensor_type;location;lat;lon;timestamp;P1;durP1;ratioP1;P2;durP2;ratioP2
9827;SDS011;4953;48.952;9.442;2022-11-28T05:02:03;7.53;;;5.03;;
9827;SDS011;4953;48.952;9.442;2022-11-28T05:04:31;6.33;;;5.73;;
9827;SDS011;4953;48.952;9.442;2022-11-28T05:07:01;7.00;;;6.10;;
9827;SDS011;4953;48.952;9.442;2022-11-28T05:09:28;9.17;;;6.23;;
9827;SDS011;4953;48.952;9.442;2022-11-28T05:11:55;7.33;;;5.10;;
9827;SDS011;4953;48.952;9.442;2022-11-28T05:14:22;8.60;;;5.87;;
9827;SDS011;4953;48.952;9.442;2022-11-28T05:16:49;8.20;;;6.77;;
9827;SDS011;4953;48.952;9.442;2022-11-28T05:19:17;8.30;;;6.13;;
9827;SDS011;4953;48.952;9.442;2022-11-28T05:21:44;8.43;;;7.00;;
9827;SDS011;4953;48.952;9.442;2022-11-28T05:24:11;8.57;;;6.70;;
9827;SDS011;4953;48.952;9.442;2022-11-28T05:26:38;7.60;;;5.70;;
9827;SDS011;4953;48.952;9.442;2022-11-28T05:29:05;7.03;;;5.87;;
9827;SDS011;4953;48.952;9.442;2022-11-28T05:31:31;8.87;;;6.33;;
9827;SDS011;4953;48.952;9.442;2022-11-28T05:33:58;7.80;;;6.00;;
9827;SDS011;4953;48.952;9.442;2022-11-28T05:36:26;8.53;;;6.40;;
9827;SDS011;4953;48.952;9.442;2022-11-28T05:38:53;6.77;;;5.60;;
9827;SDS011;4953;48.952;9.442;2022-11-28T05:41:22;6.80;;;5.03;;
9827;SDS011;4953;48.952;9.442;2022-11-28T05:43:50;9.87;;;5.70;;
9827;SDS011;4953;48.952;9.442;2022-11-28T05:46:18;6.43;;;5.30;;
9827;SDS011;4953;48.952;9.442;2022-11-28T05:48:45;6.47;;;5.30;;
9827;SDS011;4953;48.952;9.442;2022-11-28T05:51:11;8.40;;;4.90;;
9827;SDS011;4953;48.952;9.442;2022-11-28T05:53:40;6.70;;;5.80;;
9827;SDS011;4953;48.952;9.442;2022-11-28T05:56:07;6.77;;;5.73;;
9827;SDS011;4953;48.952;9.442;2022-11-28T05:58:34;8.70;;;5.90;;
9827;SDS011;4953;48.952;9.442;2022-11-28T06:01:07;6.70;;;5.20;;
9827;SDS011;4953;48.952;9.442;2022-11-28T06:03:35;7.67;;;5.20;;
9827;SDS011;4953;48.952;9.442;2022-11-28T06:06:02;9.77;;;5.60;;
9827;SDS011;4953;48.952;9.442;2022-11-28T06:08:29;7.73;;;5.53;;
9827;SDS011;4953;48.952;9.442;2022-11-28T06:10:57;8.23;;;6.07;;
9827;SDS011;4953;48.952;9.442;2022-11-28T06:13:25;7.83;;;6.10;;
9827;SDS011;4953;48.952;9.442;2022-11-28T06:15:52;9.63;;;6.77;;
9827;SDS011;4953;48.952;9.442;2022-11-28T06:18:18;9.73;;;6.80;;
9827;SDS011;4953;48.952;9.442;2022-11-28T06:20:45;7.80;;;6.10;;
9827;SDS011;4953;48.952;9.442;2022-11-28T06:23:12;7.93;;;5.67;;
9827;SDS011;4953;48.952;9.442;2022-11-28T06:25:39;7.97;;;6.47;;
9827;SDS011;4953;48.952;9.442;2022-11-28T06:28:07;10.40;;;7.40;;
9827;SDS011;4953;48.952;9.442;2022-11-28T06:30:34;10.83;;;7.43;;
9827;SDS011;4953;48.952;9.442;2022-11-28T06:33:01;8.60;;;6.20;;
9827;SDS011;4953;48.952;9.442;2022-11-28T06:35:27;7.93;;;6.10;;
9827;SDS011;4953;48.952;9.442;2022-11-28T06:37:54;7.60;;;5.20;;
9827;SDS011;4953;48.952;9.442;2022-11-28T06:40:21;9.80;;;6.93;;
9827;SDS011;4953;48.952;9.442;2022-11-28T06:42:48;8.77;;;6.73;;
9827;SDS011;4953;48.952;9.442;2022-11-28T06:45:16;8.23;;;6.50;;
9827;SDS011;4953;48.952;9.442;2022-11-28T06:47:43;18.37;;;10.60;;
9827;SDS011;4953;48.952;9.442;2022-11-28T06:50:10;12.83;;;9.50;;
9827;SDS011;4953;48.952;9.442;2022-11-28T06:52:37;16.57;;;12.10;;
9827;SDS011;4953;48.952;9.442;2022-11-28T06:55:04;14.00;;;9.20;;
9827;SDS011;4953;48.952;9.442;2022-11-28T06:57:31;12.43;;;8.77;;
9827;SDS011;4953;48.952;9.442;2022-11-28T06:59:57;10.10;;;7.60;;
9827;SDS011;4953;48.952;9.442;2022-11-28T07:02:25;9.00;;;6.60;;
9827;SDS011;4953;48.952;9.442;2022-11-28T07:04:52;8.30;;;6.00;;
9827;SDS011;4953;48.952;9.442;2022-11-28T07:07:19;8.30;;;6.43;;
9827;SDS011;4953;48.952;9.442;2022-11-28T07:09:46;7.90;;;6.03;;
9827;SDS011;4953;48.952;9.442;2022-11-28T07:12:13;9.97;;;6.60;;
9827;SDS011;4953;48.952;9.442;2022-11-28T07:14:39;9.43;;;6.60;;
9827;SDS011;4953;48.952;9.442;2022-11-28T07:17:06;9.00;;;6.37;;
9827;SDS011;4953;48.952;9.442;2022-11-28T07:19:34;9.63;;;5.70;;
9827;SDS011;4953;48.952;9.442;2022-11-28T07:22:01;9.90;;;6.40;;
9827;SDS011;4953;48.952;9.442;2022-11-28T07:24:28;11.70;;;6.53;;
9827;SDS011;4953;48.952;9.442;2022-11-28T07:26:55;7.77;;;6.47;;
9827;SDS011;4953;48.952;9.442;2022-11-28T07:29:22;10.77;;;6.67;;
9827;SDS011;4953;48.952;9.442;2022-11-28T07:31:48;10.17;;;7.93;;
9827;SDS011;4953;48.952;9.442;2022-11-28T07:34:15;9.70;;;6.13;;
9827;SDS011;4953;48.952;9.442;2022-11-28T07:36:43;6.53;;;5.43;;
9827;SDS011;4953;48.952;9.442;2022-11-28T07:39:11;10.40;;;7.50;;
9827;SDS011;4953;48.952;9.442;2022-11-28T07:41:41;10.40;;;6.97;;
9827;SDS011;4953;48.952;9.442;2022-11-28T07:44:08;8.80;;;6.77;;
9827;SDS011;4953;48.952;9.442;2022-11-28T07:46:35;8.67;;;6.47;;
9827;SDS011;4953;48.952;9.442;2022-11-28T07:49:02;8.17;;;6.67;;
9827;SDS011;4953;48.952;9.442;2022-11-28T07:51:30;15.23;;;7.67;;
9827;SDS011;4953;48.952;9.442;2022-11-28T07:54:00;11.47;;;7.50;;
9827;SDS011;4953;48.952;9.442;2022-11-28T07:56:27;12.40;;;7.93;;
9827;SDS011;4953;48.952;9.442;2022-11-28T07:58:55;9.00;;;6.30;;
9827;SDS011;4953;48.952;9.442;2022-11-28T08:01:24;9.30;;;7.00;;
9827;SDS011;4953;48.952;9.442;2022-11-28T08:03:53;10.80;;;6.90;;
9827;SDS011;4953;48.952;9.442;2022-11-28T08:06:22;10.97;;;6.83;;
9827;SDS011;4953;48.952;9.442;2022-11-28T08:08:50;14.80;;;8.97;;
9827;SDS011;4953;48.952;9.442;2022-11-28T08:11:19;8.00;;;6.70;;
9827;SDS011;4953;48.952;9.442;2022-11-28T08:13:47;11.17;;;7.00;;
9827;SDS011;4953;48.952;9.442;2022-11-28T08:16:15;7.80;;;6.30;;
9827;SDS011;4953;48.952;9.442;2022-11-28T08:18:44;8.87;;;6.70;;
9827;SDS011;4953;48.952;9.442;2022-11-28T08:21:12;17.40;;;9.90;;
9827;SDS011;4953;48.952;9.442;2022-11-28T08:23:40;13.87;;;8.83;;
9827;SDS011;4953;48.952;9.442;2022-11-28T08:26:08;16.00;;;8.90;;
9827;SDS011;4953;48.952;9.442;2022-11-28T08:28:38;15.27;;;8.27;;
9827;SDS011;4953;48.952;9.442;2022-11-28T08:31:10;12.50;;;8.53;;
9827;SDS011;4953;48.952;9.442;2022-11-28T08:33:38;10.13;;;8.10;;
9827;SDS011;4953;48.952;9.442;2022-11-28T08:36:05;11.40;;;8.20;;
9827;SDS011;4953;48.952;9.442;2022-11-28T08:38:33;14.37;;;8.50;;
9827;SDS011;4953;48.952;9.442;2022-11-28T08:41:00;11.73;;;8.23;;
9827;SDS011;4953;48.952;9.442;2022-11-28T08:43:27;11.47;;;7.30;;
9827;SDS011;4953;48.952;9.442;2022-11-28T08:45:55;12.33;;;6.87;;
9827;SDS011;4953;48.952;9.442;2022-11-28T08:48:22;9.87;;;7.60;;
9827;SDS011;4953;48.952;9.442;2022-11-28T08:50:49;12.90;;;8.07;;
9827;SDS011;4953;48.952;9.442;2022-11-28T08:53:15;12.47;;;6.87;;
9827;SDS011;4953;48.952;9.442;2022-11-28T08:55:42;11.83;;;7.50;;
9827;SDS011;4953;48.952;9.442;2022-11-28T08:58:09;10.53;;;7.40;;
9827;SDS011;4953;48.952;9.442;2022-11-28T09:00:36;13.03;;;9.00;;
9827;SDS011;4953;48.952;9.442;2022-11-28T09:03:04;13.50;;;8.00;;
9827;SDS011;4953;48.952;9.442;2022-11-28T09:05:31;10.87;;;7.27;;
9827;SDS011;4953;48.952;9.442;2022-11-28T09:07:58;10.57;;;7.00;;
9827;SDS011;4953;48.952;9.442;2022-11-28T09:10:25;14.03;;;8.10;;
9827;SDS011;4953;48.952;9.442;2022-11-28T09:12:52;15.27;;;10.47;;
9827;SDS011;4953;48.952;9.442;2022-11-28T09:15:19;22.73;;;12.57;;
9827;SDS011;4953;48.952;9.442;2022-11-28T09:17:46;14.63;;;9.50;;
9827;SDS011;4953;48.952;9.442;2022-11-28T09:20:14;11.60;;;7.70;;
9827;SDS011;4953;48.952;9.442;2022-11-28T09:22:41;12.10;;;8.27;;
9827;SDS011;4953;48.952;9.442;2022-11-28T09:25:08;11.20;;;7.40;;
9827;SDS011;4953;48.952;9.442;2022-11-28T09:27:35;10.90;;;7.40;;
9827;SDS011;4953;48.952;9.442;2022-11-28T09:30:02;11.50;;;6.83;;
9827;SDS011;4953;48.952;9.442;2022-11-28T09:32:29;7.80;;;6.30;;
9827;SDS011;4953;48.952;9.442;2022-11-28T09:34:56;15.83;;;10.83;;
9827;SDS011;4953;48.952;9.442;2022-11-28T09:37:25;10.40;;;7.10;;
9827;SDS011;4953;48.952;9.442;2022-11-28T09:39:52;9.93;;;6.33;;
9827;SDS011;4953;48.952;9.442;2022-11-28T09:42:20;9.67;;;6.40;;
9827;SDS011;4953;48.952;9.442;2022-11-28T09:44:53;13.50;;;6.40;;
9827;SDS011;4953;48.952;9.442;2022-11-28T09:47:25;10.77;;;6.60;;
9827;SDS011;4953;48.952;9.442;2022-11-28T09:49:54;9.07;;;6.97;;
9827;SDS011;4953;48.952;9.442;2022-11-28T09:52:29;12.00;;;7.53;;
9827;SDS011;4953;48.952;9.442;2022-11-28T09:55:09;8.50;;;5.37;;
9827;SDS011;4953;48.952;9.442;2022-11-28T09:57:40;7.80;;;6.20;;
9827;SDS011;4953;48.952;9.442;2022-11-28T10:00:13;8.93;;;6.17;;
9827;SDS011;4953;48.952;9.442;2022-11-28T10:02:59;8.77;;;5.90;;
9827;SDS011;4953;48.952;9.442;2022-11-28T10:05:41;11.23;;;6.73;;
9827;SDS011;4953;48.952;9.442;2022-11-28T10:08:20;8.90;;;6.13;;
9827;SDS011;4953;48.952;9.442;2022-11-28T10:10:54;6.87;;;6.00;;
9827;SDS011;4953;48.952;9.442;2022-11-28T10:13:29;5.33;;;4.50;;
9827;SDS011;4953;48.952;9.442;2022-11-28T10:16:08;7.60;;;5.17;;
9827;SDS011;4953;48.952;9.442;2022-11-28T10:18:42;17.27;;;9.80;;
9827;SDS011;4953;48.952;9.442;2022-11-28T10:21:17;11.03;;;7.33;;
9827;SDS011;4953;48.952;9.442;2022-11-28T10:23:50;9.80;;;6.60;;
9827;SDS011;4953;48.952;9.442;2022-11-28T10:26:23;9.70;;;6.80;;
9827;SDS011;4953;48.952;9.442;2022-11-28T10:28:57;14.37;;;7.80;;
9827;SDS011;4953;48.952;9.442;2022-11-28T10:31:29;16.53;;;7.60;;
9827;SDS011;4953;48.952;9.442;2022-11-28T10:34:05;11.43;;;8.10;;
9827;SDS011;4953;48.952;9.442;2022-11-28T10:36:40;10.60;;;7.70;;
9827;SDS011;4953;48.952;9.442;2022-11-28T10:39:17;14.10;;;8.20;;
9827;SDS011;4953;48.952;9.442;2022-11-28T10:41:45;9.40;;;7.13;;
9827;SDS011;4953;48.952;9.442;2022-11-28T10:44:36;9.00;;;6.63;;
9827;SDS011;4953;48.952;9.442;2022-11-28T10:47:15;11.53;;;7.70;;
9827;SDS011;4953;48.952;9.442;2022-11-28T10:49:52;10.20;;;7.77;;
9827;SDS011;4953;48.952;9.442;2022-11-28T10:52:29;15.73;;;8.20;;
9827;SDS011;4953;48.952;9.442;2022-11-28T10:55:10;11.17;;;7.40;;
9827;SDS011;4953;48.952;9.442;2022-11-28T10:57:48;8.30;;;7.17;;
9827;SDS011;4953;48.952;9.442;2022-11-28T11:00:23;15.60;;;8.03;;
9827;SDS011;4953;48.952;9.442;2022-11-28T11:02:51;11.20;;;8.03;;
9827;SDS011;4953;48.952;9.442;2022-11-28T11:05:19;15.13;;;8.40;;
9827;SDS011;4953;48.952;9.442;2022-11-28T11:07:50;10.43;;;7.93;;
9827;SDS011;4953;48.952;9.442;2022-11-28T11:10:20;14.00;;;8.43;;
9827;SDS011;4953;48.952;9.442;2022-11-28T11:12:51;11.87;;;7.83;;
9827;SDS011;4953;48.952;9.442;2022-11-28T11:15:20;10.33;;;7.93;;
9827;SDS011;4953;48.952;9.442;2022-11-28T11:17:49;9.10;;;6.57;;
9827;SDS011;4953;48.952;9.442;2022-11-28T11:23:11;16.73;;;10.50;;
9827;SDS011;4953;48.952;9.442;2022-11-28T11:25:46;14.40;;;9.73;;
9827;SDS011;4953;48.952;9.442;2022-11-28T11:28:24;13.80;;;9.57;;
9827;SDS011;4953;48.952;9.442;2022-11-28T11:30:57;11.27;;;8.13;;
9827;SDS011;4953;48.952;9.442;2022-11-28T11:33:27;17.40;;;7.73;;
9827;SDS011;4953;48.952;9.442;2022-11-28T11:35:58;11.80;;;7.93;;
9827;SDS011;4953;48.952;9.442;2022-11-28T11:38:28;13.33;;;9.47;;
9827;SDS011;4953;48.952;9.442;2022-11-28T11:41:02;9.77;;;7.40;;
9827;SDS011;4953;48.952;9.442;2022-11-28T11:43:45;16.73;;;8.37;;
9827;SDS011;4953;48.952;9.442;2022-11-28T11:46:12;11.07;;;7.60;;
9827;SDS011;4953;48.952;9.442;2022-11-28T11:48:40;13.23;;;7.47;;
9827;SDS011;4953;48.952;9.442;2022-11-28T11:51:19;10.20;;;7.30;;
9827;SDS011;4953;48.952;9.442;2022-11-28T11:53:47;10.77;;;7.60;;
9827;SDS011;4953;48.952;9.442;2022-11-28T11:56:25;8.73;;;7.03;;
9827;SDS011;4953;48.952;9.442;2022-11-28T11:58:55;9.17;;;7.40;;
9827;SDS011;4953;48.952;9.442;2022-11-28T12:01:26;10.63;;;7.40;;
9827;SDS011;4953;48.952;9.442;2022-11-28T12:03:56;9.60;;;7.07;;
9827;SDS011;4953;48.952;9.442;2022-11-28T12:06:26;14.77;;;8.00;;
9827;SDS011;4953;48.952;9.442;2022-11-28T12:09:01;9.03;;;7.07;;
9827;SDS011;4953;48.952;9.442;2022-11-28T12:11:35;12.27;;;7.03;;
9827;SDS011;4953;48.952;9.442;2022-11-28T12:16:57;9.13;;;7.23;;
9827;SDS011;4953;48.952;9.442;2022-11-28T12:19:35;10.40;;;7.60;;
9827;SDS011;4953;48.952;9.442;2022-11-28T12:22:11;11.20;;;7.63;;
9827;SDS011;4953;48.952;9.442;2022-11-28T12:24:51;10.77;;;8.03;;
9827;SDS011;4953;48.952;9.442;2022-11-28T12:27:29;11.37;;;7.57;;
9827;SDS011;4953;48.952;9.442;2022-11-28T12:30:14;13.00;;;7.90;;
9827;SDS011;4953;48.952;9.442;2022-11-28T12:32:50;9.93;;;7.27;;
9827;SDS011;4953;48.952;9.442;2022-11-28T12:35:27;9.70;;;7.93;;
9827;SDS011;4953;48.952;9.442;2022-11-28T12:38:05;11.17;;;7.50;;
9827;SDS011;4953;48.952;9.442;2022-11-28T12:40:41;9.07;;;7.13;;
9827;SDS011;4953;48.952;9.442;2022-11-28T12:43:29;12.73;;;7.57;;
9827;SDS011;4953;48.952;9.442;2022-11-28T12:46:03;11.73;;;8.20;;
9827;SDS011;4953;48.952;9.442;2022-11-28T12:48:47;14.93;;;10.00;;
9827;SDS011;4953;48.952;9.442;2022-11-28T12:51:28;16.93;;;11.80;;
9827;SDS011;4953;48.952;9.442;2022-11-28T12:54:05;16.97;;;11.53;;
9827;SDS011;4953;48.952;9.442;2022-11-28T12:56:52;16.10;;;11.10;;
9827;SDS011;4953;48.952;9.442;2022-11-28T12:59:31;15.23;;;11.20;;
9827;SDS011;4953;48.952;9.442;2022-11-28T13:02:11;16.67;;;10.90;;
9827;SDS011;4953;48.952;9.442;2022-11-28T13:07:46;16.93;;;10.40;;
9827;SDS011;4953;48.952;9.442;2022-11-28T13:10:23;23.63;;;15.40;;
9827;SDS011;4953;48.952;9.442;2022-11-28T13:12:55;25.10;;;15.70;;
9827;SDS011;4953;48.952;9.442;2022-11-28T13:15:35;22.93;;;13.03;;
9827;SDS011;4953;48.952;9.442;2022-11-28T13:18:14;11.70;;;8.17;;
9827;SDS011;4953;48.952;9.442;2022-11-28T13:20:52;12.50;;;8.03;;
9827;SDS011;4953;48.952;9.442;2022-11-28T13:23:25;16.30;;;8.53;;
9827;SDS011;4953;48.952;9.442;2022-11-28T13:25:57;18.43;;;8.43;;
9827;SDS011;4953;48.952;9.442;2022-11-28T13:28:31;12.07;;;9.30;;
9827;SDS011;4953;48.952;9.442;2022-11-28T13:31:05;10.73;;;8.80;;
9827;SDS011;4953;48.952;9.442;2022-11-28T13:33:41;10.00;;;8.60;;
9827;SDS011;4953;48.952;9.442;2022-11-28T13:36:18;13.87;;;8.90;;
9827;SDS011;4953;48.952;9.442;2022-11-28T13:38:52;17.37;;;10.20;;
9827;SDS011;4953;48.952;9.442;2022-11-28T13:41:26;13.27;;;9.00;;
9827;SDS011;4953;48.952;9.442;2022-11-28T13:44:02;20.13;;;10.20;;
9827;SDS011;4953;48.952;9.442;2022-11-28T13:46:40;10.30;;;8.53;;
9827;SDS011;4953;48.952;9.442;2022-11-28T13:49:09;11.60;;;8.40;;
9827;SDS011;4953;48.952;9.442;2022-11-28T13:51:45;13.13;;;8.27;;
9827;SDS011;4953;48.952;9.442;2022-11-28T13:57:21;10.00;;;7.03;;
9827;SDS011;4953;48.952;9.442;2022-11-28T13:59:53;8.37;;;6.83;;
9827;SDS011;4953;48.952;9.442;2022-11-28T14:02:27;8.37;;;7.07;;
9827;SDS011;4953;48.952;9.442;2022-11-28T14:05:00;10.27;;;7.23;;
9827;SDS011;4953;48.952;9.442;2022-11-28T14:07:28;10.47;;;7.77;;
9827;SDS011;4953;48.952;9.442;2022-11-28T14:10:01;9.90;;;6.73;;
9827;SDS011;4953;48.952;9.442;2022-11-28T14:15:53;9.60;;;7.07;;
9827;SDS011;4953;48.952;9.442;2022-11-28T14:18:34;8.80;;;7.00;;
9827;SDS011;4953;48.952;9.442;2022-11-28T14:21:09;9.63;;;7.20;;
9827;SDS011;4953;48.952;9.442;2022-11-28T14:23:49;11.17;;;7.10;;
9827;SDS011;4953;48.952;9.442;2022-11-28T14:26:22;8.23;;;6.17;;
9827;SDS011;4953;48.952;9.442;2022-11-28T14:28:52;9.70;;;7.37;;
9827;SDS011;4953;48.952;9.442;2022-11-28T14:31:21;8.67;;;6.83;;
9827;SDS011;4953;48.952;9.442;2022-11-28T14:33:57;10.33;;;7.10;;
9827;SDS011;4953;48.952;9.442;2022-11-28T14:36:26;7.70;;;6.57;;
9827;SDS011;4953;48.952;9.442;2022-11-28T14:39:04;8.30;;;6.50;;
9827;SDS011;4953;48.952;9.442;2022-11-28T14:44:44;9.40;;;6.60;;
9827;SDS011;4953;48.952;9.442;2022-11-28T14:47:14;10.20;;;7.20;;
9827;SDS011;4953;48.952;9.442;2022-11-28T14:49:44;6.80;;;5.83;;
9827;SDS011;4953;48.952;9.442;2022-11-28T14:52:23;7.93;;;6.27;;
9827;SDS011;4953;48.952;9.442;2022-11-28T14:54:50;9.10;;;6.90;;
9827;SDS011;4953;48.952;9.442;2022-11-28T14:57:20;7.70;;;5.67;;
9827;SDS011;4953;48.952;9.442;2022-11-28T14:59:49;13.30;;;6.80;;
9827;SDS011;4953;48.952;9.442;2022-11-28T15:11:03;22.97;;;13.53;;
9827;SDS011;4953;48.952;9.442;2022-11-28T15:13:47;27.20;;;14.07;;
9827;SDS011;4953;48.952;9.442;2022-11-28T15:16:23;17.67;;;11.10;;
9827;SDS011;4953;48.952;9.442;2022-11-28T15:18:57;20.00;;;10.60;;
9827;SDS011;4953;48.952;9.442;2022-11-28T15:21:28;21.33;;;11.50;;
9827;SDS011;4953;48.952;9.442;2022-11-28T15:23:57;19.40;;;12.50;;
9827;SDS011;4953;48.952;9.442;2022-11-28T15:26:25;13.70;;;9.37;;
9827;SDS011;4953;48.952;9.442;2022-11-28T15:29:06;12.53;;;8.00;;
9827;SDS011;4953;48.952;9.442;2022-11-28T15:31:34;10.83;;;6.83;;
9827;SDS011;4953;48.952;9.442;2022-11-28T15:34:01;11.93;;;7.77;;
9827;SDS011;4953;48.952;9.442;2022-11-28T15:36:29;13.40;;;8.00;;
9827;SDS011;4953;48.952;9.442;2022-11-28T15:38:56;10.40;;;7.70;;
9827;SDS011;4953;48.952;9.442;2022-11-28T15:41:23;10.30;;;7.60;;
9827;SDS011;4953;48.952;9.442;2022-11-28T15:43:52;14.73;;;8.47;;
9827;SDS011;4953;48.952;9.442;2022-11-28T15:46:23;14.07;;;8.63;;
9827;SDS011;4953;48.952;9.442;2022-11-28T15:48:55;12.83;;;8.67;;
9827;SDS011;4953;48.952;9.442;2022-11-28T15:51:26;13.97;;;8.60;;
9827;SDS011;4953;48.952;9.442;2022-11-28T15:53:56;14.20;;;8.53;;
9827;SDS011;4953;48.952;9.442;2022-11-28T15:56:23;11.20;;;8.70;;
9827;SDS011;4953;48.952;9.442;2022-11-28T15:58:50;12.70;;;9.17;;
9827;SDS011;4953;48.952;9.442;2022-11-28T16:01:18;19.00;;;7.93;;
9827;SDS011;4953;48.952;9.442;2022-11-28T16:03:49;12.07;;;7.70;;
9827;SDS011;4953;48.952;9.442;2022-11-28T16:06:18;19.67;;;12.87;;
9827;SDS011;4953;48.952;9.442;2022-11-28T16:08:48;18.57;;;10.80;;
9827;SDS011;4953;48.952;9.442;2022-11-28T16:11:20;16.77;;;10.87;;
9827;SDS011;4953;48.952;9.442;2022-11-28T16:13:48;13.50;;;9.53;;
9827;SDS011;4953;48.952;9.442;2022-11-28T16:16:17;18.47;;;9.93;;
9827;SDS011;4953;48.952;9.442;2022-11-28T16:18:47;17.37;;;9.10;;
9827;SDS011;4953;48.952;9.442;2022-11-28T16:21:22;11.93;;;8.70;;
9827;SDS011;4953;48.952;9.442;2022-11-28T16:23:51;15.30;;;8.80;;
9827;SDS011;4953;48.952;9.442;2022-11-28T16:26:26;11.90;;;8.30;;
9827;SDS011;4953;48.952;9.442;2022-11-28T16:28:58;26.50;;;17.20;;
9827;SDS011;4953;48.952;9.442;2022-11-28T16:31:27;22.13;;;16.53;;
9827;SDS011;4953;48.952;9.442;2022-11-28T16:33:54;24.10;;;15.13;;
9827;SDS011;4953;48.952;9.442;2022-11-28T16:36:22;21.60;;;16.57;;
9827;SDS011;4953;48.952;9.442;2022-11-28T16:38:51;26.13;;;17.10;;
9827;SDS011;4953;48.952;9.442;2022-11-28T16:41:29;21.83;;;16.20;;
9827;SDS011;4953;48.952;9.442;2022-11-28T16:43:58;30.50;;;21.57;;
9827;SDS011;4953;48.952;9.442;2022-11-28T16:46:31;22.13;;;15.90;;
9827;SDS011;4953;48.952;9.442;2022-11-28T16:48:59;16.07;;;11.77;;
9827;SDS011;4953;48.952;9.442;2022-11-28T16:51:32;17.90;;;11.50;;
9827;SDS011;4953;48.952;9.442;2022-11-28T16:54:27;14.53;;;10.13;;
9827;SDS011;4953;48.952;9.442;2022-11-28T16:57:10;14.90;;;10.87;;
9827;SDS011;4953;48.952;9.442;2022-11-28T16:59:38;16.30;;;12.73;;
9827;SDS011;4953;48.952;9.442;2022-11-28T17:02:11;22.57;;;13.20;;
9827;SDS011;4953;48.952;9.442;2022-11-28T17:04:39;19.00;;;13.10;;
9827;SDS011;4953;48.952;9.442;2022-11-28T17:07:08;19.27;;;12.80;;
9827;SDS011;4953;48.952;9.442;2022-11-28T17:09:37;16.00;;;12.03;;
9827;SDS011;4953;48.952;9.442;2022-11-28T17:12:05;18.57;;;10.70;;
9827;SDS011;4953;48.952;9.442;2022-11-28T17:14:38;16.90;;;12.37;;
9827;SDS011;4953;48.952;9.442;2022-11-28T17:17:09;14.47;;;11.57;;
9827;SDS011;4953;48.952;9.442;2022-11-28T17:19:38;45.57;;;29.43;;
9827;SDS011;4953;48.952;9.442;2022-11-28T17:22:05;25.47;;;18.53;;
9827;SDS011;4953;48.952;9.442;2022-11-28T17:24:32;22.00;;;13.70;;
9827;SDS011;4953;48.952;9.442;2022-11-28T17:27:00;19.23;;;13.67;;
9827;SDS011;4953;48.952;9.442;2022-11-28T17:29:31;20.90;;;14.57;;
9827;SDS011;4953;48.952;9.442;2022-11-28T17:32:00;16.70;;;13.10;;
9827;SDS011;4953;48.952;9.442;2022-11-28T17:34:27;17.80;;;12.67;;
9827;SDS011;4953;48.952;9.442;2022-11-28T17:36:55;28.43;;;18.60;;
9827;SDS011;4953;48.952;9.442;2022-11-28T17:39:23;29.40;;;21.40;;
9827;SDS011;4953;48.952;9.442;2022-11-28T17:41:51;23.07;;;14.07;;
9827;SDS011;4953;48.952;9.442;2022-11-28T17:44:18;20.03;;;14.20;;
9827;SDS011;4953;48.952;9.442;2022-11-28T17:46:47;20.10;;;15.37;;
9827;SDS011;4953;48.952;9.442;2022-11-28T17:49:16;16.30;;;13.03;;
9827;SDS011;4953;48.952;9.442;2022-11-28T17:51:43;14.43;;;10.23;;
9827;SDS011;4953;48.952;9.442;2022-11-28T17:54:11;12.60;;;9.27;;
9827;SDS011;4953;48.952;9.442;2022-11-28T17:56:40;15.87;;;10.73;;
9827;SDS011;4953;48.952;9.442;2022-11-28T17:59:07;13.83;;;10.53;;
9827;SDS011;4953;48.952;9.442;2022-11-28T18:01:34;13.30;;;11.37;;
9827;SDS011;4953;48.952;9.442;2022-11-28T18:04:02;12.23;;;10.60;;
9827;SDS011;4953;48.952;9.442;2022-11-28T18:06:30;13.30;;;10.20;;
9827;SDS011;4953;48.952;9.442;2022-11-28T18:08:57;13.70;;;10.77;;
9827;SDS011;4953;48.952;9.442;2022-11-28T18:11:26;11.87;;;8.40;;
9827;SDS011;4953;48.952;9.442;2022-11-28T18:13:53;15.80;;;10.53;;
9827;SDS011;4953;48.952;9.442;2022-11-28T18:16:21;16.20;;;8.67;;
9827;SDS011;4953;48.952;9.442;2022-11-28T18:18:50;18.23;;;10.93;;
9827;SDS011;4953;48.952;9.442;2022-11-28T18:21:18;15.47;;;11.40;;
9827;SDS011;4953;48.952;9.442;2022-11-28T18:23:47;32.07;;;21.27;;
9827;SDS011;4953;48.952;9.442;2022-11-28T18:26:15;33.53;;;23.47;;
9827;SDS011;4953;48.952;9.442;2022-11-28T18:28:43;32.70;;;21.13;;
9827;SDS011;4953;48.952;9.442;2022-11-28T18:31:10;29.83;;;18.67;;
9827;SDS011;4953;48.952;9.442;2022-11-28T18:33:38;28.70;;;17.50;;
9827;SDS011;4953;48.952;9.442;2022-11-28T18:36:09;23.50;;;15.60;;
9827;SDS011;4953;48.952;9.442;2022-11-28T18:38:37;16.50;;;10.80;;
9827;SDS011;4953;48.952;9.442;2022-11-28T18:41:05;17.10;;;10.93;;
9827;SDS011;4953;48.952;9.442;2022-11-28T18:43:34;15.47;;;10.47;;
9827;SDS011;4953;48.952;9.442;2022-11-28T18:46:02;15.23;;;10.27;;
9827;SDS011;4953;48.952;9.442;2022-11-28T18:48:29;18.00;;;10.37;;
9827;SDS011;4953;48.952;9.442;2022-11-28T18:50:56;12.70;;;9.33;;
9827;SDS011;4953;48.952;9.442;2022-11-28T18:53:23;14.90;;;11.33;;
9827;SDS011;4953;48.952;9.442;2022-11-28T18:55:57;23.10;;;14.33;;
9827;SDS011;4953;48.952;9.442;2022-11-28T18:58:26;17.60;;;12.20;;
9827;SDS011;4953;48.952;9.442;2022-11-28T19:00:53;15.03;;;10.57;;
9827;SDS011;4953;48.952;9.442;2022-11-28T19:03:20;20.97;;;10.03;;
9827;SDS011;4953;48.952;9.442;2022-11-28T19:05:47;14.73;;;10.77;;
9827;SDS011;4953;48.952;9.442;2022-11-28T19:08:14;15.53;;;10.97;;
9827;SDS011;4953;48.952;9.442;2022-11-28T19:10:41;16.23;;;11.10;;
9827;SDS011;4953;48.952;9.442;2022-11-28T19:13:08;14.77;;;11.00;;
9827;SDS011;4953;48.952;9.442;2022-11-28T19:15:38;11.43;;;8.83;;
9827;SDS011;4953;48.952;9.442;2022-11-28T19:18:05;12.77;;;9.10;;
9827;SDS011;4953;48.952;9.442;2022-11-28T19:20:32;14.80;;;10.67;;
9827;SDS011;4953;48.952;9.442;2022-11-28T19:22:59;20.07;;;12.50;;
9827;SDS011;4953;48.952;9.442;2022-11-28T19:25:25;19.80;;;12.70;;
9827;SDS011;4953;48.952;9.442;2022-11-28T19:27:52;18.73;;;12.83;;
9827;SDS011;4953;48.952;9.442;2022-11-28T19:30:19;18.70;;;11.93;;
9827;SDS011;4953;48.952;9.442;2022-11-28T19:32:48;17.97;;;12.07;;
9827;SDS011;4953;48.952;9.442;2022-11-28T19:35:14;18.43;;;14.30;;
9827;SDS011;4953;48.952;9.442;2022-11-28T19:37:41;45.20;;;37.60;;
9827;SDS011;4953;48.952;9.442;2022-11-28T19:40:08;28.57;;;22.50;;
9827;SDS011;4953;48.952;9.442;2022-11-28T19:42:35;27.40;;;20.20;;
9827;SDS011;4953;48.952;9.442;2022-11-28T19:45:02;24.53;;;17.13;;
9827;SDS011;4953;48.952;9.442;2022-11-28T19:47:29;34.30;;;26.60;;
9827;SDS011;4953;48.952;9.442;2022-11-28T19:49:58;38.40;;;25.93;;
9827;SDS011;4953;48.952;9.442;2022-11-28T19:52:24;41.70;;;27.17;;
9827;SDS011;4953;48.952;9.442;2022-11-28T19:54:52;44.03;;;28.57;;
9827;SDS011;4953;48.952;9.442;2022-11-28T19:57:19;43.70;;;28.37;;
9827;SDS011;4953;48.952;9.442;2022-11-28T19:59:46;36.23;;;26.07;;
9827;SDS011;4953;48.952;9.442;2022-11-28T20:02:13;53.27;;;33.43;;
9827;SDS011;4953;48.952;9.442;2022-11-28T20:04:39;50.57;;;31.47;;
9827;SDS011;4953;48.952;9.442;2022-11-28T20:07:08;41.30;;;27.93;;
9827;SDS011;4953;48.952;9.442;2022-11-28T20:09:35;35.30;;;22.30;;
9827;SDS011;4953;48.952;9.442;2022-11-28T20:12:02;33.43;;;21.23;;
9827;SDS011;4953;48.952;9.442;2022-11-28T20:14:29;31.38;;;23.17;;
9827;SDS011;4953;48.952;9.442;2022-11-28T20:16:57;36.73;;;24.13;;
9827;SDS011;4953;48.952;9.442;2022-11-28T20:19:24;34.73;;;22.13;;
9827;SDS011;4953;48.952;9.442;2022-11-28T20:21:52;37.27;;;21.97;;
9827;SDS011;4953;48.952;9.442;2022-11-28T20:24:21;31.03;;;21.80;;
9827;SDS011;4953;48.952;9.442;2022-11-28T20:26:49;38.50;;;22.90;;
9827;SDS011;4953;48.952;9.442;2022-11-28T20:29:20;36.00;;;23.53;;
9827;SDS011;4953;48.952;9.442;2022-11-28T20:31:52;31.87;;;23.20;;
9827;SDS011;4953;48.952;9.442;2022-11-28T20:34:20;32.57;;;21.37;;
9827;SDS011;4953;48.952;9.442;2022-11-28T20:36:49;31.33;;;21.50;;
9827;SDS011;4953;48.952;9.442;2022-11-28T20:39:16;29.27;;;19.97;;
9827;SDS011;4953;48.952;9.442;2022-11-28T20:41:46;30.37;;;19.80;;
9827;SDS011;4953;48.952;9.442;2022-11-28T20:44:13;28.70;;;17.30;;
9827;SDS011;4953;48.952;9.442;2022-11-28T20:46:41;22.40;;;17.43;;